CAT weather

Cascais Airport
Cascais, Lisbon District, Portugal

Public forecast

Using degrees Celsius for public forecast. Weather courtesy of forecast.io.

METAR (pilot weather report)

Retrieved 2019/09/22 21:00 UTC (1 hour ago):

LPCS 222100Z 32003KT 9999 FEW017 17/14 Q1020

TAF (pilot weather forecast)

Forecast is more than 12 hours old.

Closest forecast is Sintra Air Base, 6.4 nm (11.9 km) N. Retrieved 2019/08/28 09:00 UTC (26 days ago):

TAF LPAR 280803Z 2809/2818 36010KT 9999 FEW020= TAF LPST 280803Z 2809/2818 32007KT 9999 BKN013 BECMG 2810/2813 34012KT FEW020 TEMPO 2814/2818 35012G22KT